Time;durP1;ratioP1;P1;durP2;ratioP2;P2;SDS_P1;SDS_P2;PMS_P1;PMS_P2;Temp;Humidity;BMP_temperature;BMP_pressure;BME280_temperature;BME280_humidity;BME280_pressure;Samples;Min_cycle;Max_cycle;Signal;HPM_P1;HPM_P2
2023/11/17 00:01:13;;;;;;;;;;;;;;;2.48;100.00;100462.41;5053137;28;19924;-87
2023/11/17 00:03:41;;;;;;;;;;;;;;;2.55;100.00;100463.13;5046044;28;19947;-88
2023/11/17 00:06:11;;;;;;;;;;;;;;;2.51;100.00;100467.31;5056433;28;19932;-86
2023/11/17 00:08:39;;;;;;;;;;;;;;;2.51;100.00;100459.25;5066084;28;20328;-88
2023/11/17 00:11:07;;;;;;;;;;;;;;;2.58;100.00;100462.66;5055219;28;20579;-87
2023/11/17 00:13:35;;;;;;;;;;;;;;;2.53;100.00;100475.97;5058096;28;19932;-89
2023/11/17 00:16:03;;;;;;;;;;;;;;;2.60;100.00;100479.38;5046729;28;20597;-88
2023/11/17 00:18:33;;;;;;;;;;;;;;;2.50;100.00;100476.41;5056708;28;19932;-88
2023/11/17 00:21:06;;;;;;;;;;;;;;;2.54;100.00;100474.91;5060400;28;20406;-87
2023/11/17 00:23:36;;;;;;;;;;;;;;;2.53;100.00;100476.78;5068822;28;19932;-89
2023/11/17 00:26:09;;;;;;;;;;;;;;;2.57;100.00;100473.63;5052269;28;20297;-88
2023/11/17 00:28:40;;;;;;;;;;;;;;;2.57;100.00;100484.38;5057682;28;19924;-87
2023/11/17 00:31:09;;;;;;;;;;;;;;;2.64;100.00;100482.41;5044304;28;19959;-87
2023/11/17 00:33:37;;;;;;;;;;;;;;;2.59;100.00;100487.66;5048569;28;19929;-89
2023/11/17 00:36:08;;;;;;;;;;;;;;;2.51;100.00;100486.13;5049692;28;19932;-87
2023/11/17 00:38:38;;;;;;;;;;;;;;;2.60;100.00;100478.56;5041612;28;19928;-86
2023/11/17 00:41:12;;;;;;;;;;;;;;;2.59;100.00;100485.78;5063392;28;19925;-88
2023/11/17 00:43:40;;;;;;;;;;;;;;;2.62;100.00;100489.88;5053814;28;19924;-88
2023/11/17 00:46:09;;;;;;;;;;;;;;;2.66;100.00;100491.06;5055317;28;19925;-87
2023/11/17 00:48:37;;;;;;;;;;;;;;;2.59;100.00;100490.34;5060218;28;19947;-87
2023/11/17 00:51:06;;;;;;;;;;;;;;;2.64;100.00;100501.22;5054523;28;19924;-87
2023/11/17 00:53:34;;;;;;;;;;;;;;;2.64;100.00;100498.53;5057678;28;19947;-87
2023/11/17 00:56:04;;;;;;;;;;;;;;;2.63;100.00;100499.59;5051563;28;20428;-88
2023/11/17 00:58:32;;;;;;;;;;;;;;;2.56;100.00;100510.44;5061981;28;19928;-86
2023/11/17 01:01:06;;;;;;;;;;;;;;;2.62;100.00;100508.69;5051257;28;19925;-88
2023/11/17 01:03:40;;;;;;;;;;;;;;;2.60;100.00;100508.91;5051666;28;20285;-87
2023/11/17 01:06:08;;;;;;;;;;;;;;;2.63;100.00;100515.72;5045486;28;19925;-87
2023/11/17 01:08:36;;;;;;;;;;;;;;;2.60;100.00;100519.66;5049130;28;19925;-87
2023/11/17 01:11:06;;;;;;;;;;;;;;;2.58;100.00;100516.38;5067476;28;19924;-87
2023/11/17 01:13:34;;;;;;;;;;;;;;;2.65;100.00;100505.53;5043353;28;19948;-89
2023/11/17 01:16:07;;;;;;;;;;;;;;;2.61;100.00;100515.09;5054743;28;20369;-87
2023/11/17 01:18:35;;;;;;;;;;;;;;;2.61;100.00;100524.00;5053478;28;20399;-89
2023/11/17 01:21:05;;;;;;;;;;;;;;;2.60;100.00;100514.28;5052989;28;19936;-89
2023/11/17 01:23:38;;;;;;;;;;;;;;;2.55;100.00;100514.16;5055027;28;19925;-88
2023/11/17 01:26:09;;;;;;;;;;;;;;;2.52;100.00;100520.81;5069405;28;20624;-92
2023/11/17 01:28:37;;;;;;;;;;;;;;;2.59;100.00;100519.91;5042646;28;19928;-86
2023/11/17 01:31:10;;;;;;;;;;;;;;;2.57;100.00;100525.50;5048117;28;19931;-88
2023/11/17 01:33:38;;;;;;;;;;;;;;;2.54;100.00;100525.94;5036890;28;20459;-87
2023/11/17 01:36:06;;;;;;;;;;;;;;;2.51;100.00;100527.25;5060600;28;19932;-90
2023/11/17 01:38:34;;;;;;;;;;;;;;;2.49;100.00;100528.53;5070308;28;19931;-89
2023/11/17 01:41:08;;;;;;;;;;;;;;;2.55;100.00;100527.59;5059506;28;19936;-89
2023/11/17 01:43:36;;;;;;;;;;;;;;;2.51;100.00;100526.41;5047959;28;19929;-88
2023/11/17 01:46:11;;;;;;;;;;;;;;;2.47;100.00;100534.13;5067064;28;19925;-92
2023/11/17 01:48:39;;;;;;;;;;;;;;;2.50;100.00;100532.81;5051717;28;19947;-86
2023/11/17 01:51:13;;;;;;;;;;;;;;;2.50;100.00;100530.13;5043450;28;20667;-87
2023/11/17 01:53:46;;;;;;;;;;;;;;;2.49;100.00;100528.53;5057147;28;19925;-88
2023/11/17 01:56:16;;;;;;;;;;;;;;;2.44;100.00;100526.50;5063643;28;19925;-86
2023/11/17 01:58:44;;;;;;;;;;;;;;;2.45;100.00;100533.53;5051337;28;20278;-88
2023/11/17 02:01:13;;;;;;;;;;;;;;;2.45;100.00;100533.53;5046721;28;20458;-88
2023/11/17 02:03:42;;;;;;;;;;;;;;;2.48;100.00;100537.63;5045138;28;19925;-87
2023/11/17 02:06:21;;;;;;;;;;;;;;;2.48;100.00;100533.06;5048593;28;20304;-87
2023/11/17 02:09:01;;;;;;;;;;;;;;;2.47;100.00;100539.50;5047446;28;19925;-87
2023/11/17 02:11:35;;;;;;;;;;;;;;;2.50;100.00;100540.88;5059121;28;19925;-88
2023/11/17 02:14:13;;;;;;;;;;;;;;;2.43;100.00;100538.31;5053922;28;19925;-87
2023/11/17 02:16:42;;;;;;;;;;;;;;;2.34;100.00;100537.00;5069817;28;19932;-92
2023/11/17 02:19:15;;;;;;;;;;;;;;;2.28;100.00;100538.72;5062485;28;19939;-89
2023/11/17 02:21:44;;;;;;;;;;;;;;;2.28;100.00;100549.47;5053956;28;19924;-87
2023/11/17 02:24:17;;;;;;;;;;;;;;;2.32;100.00;100542.59;5048082;28;19929;-87
2023/11/17 02:26:52;;;;;;;;;;;;;;;2.38;100.00;100549.72;5053131;28;19924;-88
2023/11/17 02:29:28;;;;;;;;;;;;;;;2.44;100.00;100548.00;5053478;28;19924;-87
2023/11/17 02:31:57;;;;;;;;;;;;;;;2.41;100.00;100559.19;5054052;28;19924;-86
2023/11/17 02:34:30;;;;;;;;;;;;;;;2.47;100.00;100561.00;5051685;28;19925;-86
2023/11/17 02:37:05;;;;;;;;;;;;;;;2.43;100.00;100561.66;5044282;28;20305;-89
2023/11/17 02:39:36;;;;;;;;;;;;;;;2.43;100.00;100558.97;5056831;28;19933;-91
2023/11/17 02:42:11;;;;;;;;;;;;;;;2.48;100.00;100561.81;5069392;28;19960;-87
2023/11/17 02:44:44;;;;;;;;;;;;;;;2.52;100.00;100558.41;5042826;28;19924;-88
2023/11/17 02:47:19;;;;;;;;;;;;;;;2.57;100.00;100571.19;5055232;28;19931;-90
2023/11/17 02:49:52;;;;;;;;;;;;;;;2.50;100.00;100571.28;5043754;28;19931;-89
2023/11/17 02:52:24;;;;;;;;;;;;;;;2.51;100.00;100567.53;5058740;28;19931;-83
2023/11/17 02:54:52;;;;;;;;;;;;;;;2.57;100.00;100567.66;5055103;28;19936;-91
2023/11/17 02:57:23;;;;;;;;;;;;;;;2.55;100.00;100579.47;5058448;28;20274;-89
2023/11/17 02:59:53;;;;;;;;;;;;;;;2.55;100.00;100576.78;5053148;28;19931;-87
2023/11/17 03:02:22;;;;;;;;;;;;;;;2.60;100.00;100584.16;5058807;28;19929;-88
2023/11/17 03:04:52;;;;;;;;;;;;;;;2.57;100.00;100584.63;5060606;28;19924;-89
2023/11/17 03:07:20;;;;;;;;;;;;;;;2.58;100.00;100580.84;5075972;28;19924;-90
2023/11/17 03:09:51;;;;;;;;;;;;;;;2.55;100.00;100584.84;5056050;28;19931;-88
2023/11/17 03:12:19;;;;;;;;;;;;;;;2.61;100.00;100590.34;5057599;28;19931;-87
2023/11/17 03:14:47;;;;;;;;;;;;;;;2.60;100.00;100586.84;5053166;28;19932;-87
2023/11/17 03:17:21;;;;;;;;;;;;;;;2.61;100.00;100583.09;5052632;28;19925;-85
2023/11/17 03:19:49;;;;;;;;;;;;;;;2.60;100.00;100584.16;5055863;28;19924;-88
2023/11/17 03:22:17;;;;;;;;;;;;;;;2.65;100.00;100589.66;5046098;28;19924;-89
2023/11/17 03:24:45;;;;;;;;;;;;;;;2.57;100.00;100599.91;5050683;28;19924;-89
2023/11/17 03:27:14;;;;;;;;;;;;;;;2.53;100.00;100597.66;5053500;28;19925;-88
2023/11/17 03:29:46;;;;;;;;;;;;;;;2.50;100.00;100600.81;5049370;28;19931;-89
2023/11/17 03:32:14;;;;;;;;;;;;;;;2.51;100.00;100601.63;5041154;28;20099;-89
2023/11/17 03:34:43;;;;;;;;;;;;;;;2.51;100.00;100607.84;5054287;28;19932;-92
2023/11/17 03:37:13;;;;;;;;;;;;;;;2.51;100.00;100607.00;5054111;28;19925;-88
2023/11/17 03:39:42;;;;;;;;;;;;;;;2.54;100.00;100603.84;5059123;28;20380;-88
2023/11/17 03:42:18;;;;;;;;;;;;;;;2.52;100.00;100616.72;5050969;28;19947;-93
2023/11/17 03:44:52;;;;;;;;;;;;;;;2.47;100.00;100606.66;5061264;28;19925;-85
2023/11/17 03:47:25;;;;;;;;;;;;;;;2.48;100.00;100618.22;5051034;28;19943;-90
2023/11/17 03:49:55;;;;;;;;;;;;;;;2.43;100.00;100626.97;5052264;28;20552;-88
2023/11/17 03:52:23;;;;;;;;;;;;;;;2.44;100.00;100625.88;5055995;28;20573;-86
2023/11/17 03:54:51;;;;;;;;;;;;;;;2.44;100.00;100628.56;5048246;28;19925;-87
2023/11/17 03:57:20;;;;;;;;;;;;;;;2.48;100.00;100639.69;5051992;28;19931;-87
2023/11/17 03:59:48;;;;;;;;;;;;;;;2.53;100.00;100635.28;5059376;28;20481;-94
2023/11/17 04:02:16;;;;;;;;;;;;;;;2.52;100.00;100636.31;5053600;28;19935;-88
2023/11/17 04:04:43;;;;;;;;;;;;;;;2.63;100.00;100644.66;5056534;28;19925;-88
2023/11/17 04:07:16;;;;;;;;;;;;;;;2.59;100.00;100643.50;5052686;28;20376;-88
2023/11/17 04:09:47;;;;;;;;;;;;;;;2.54;100.00;100646.84;5056951;28;19939;-87
2023/11/17 04:12:15;;;;;;;;;;;;;;;2.50;100.00;100646.50;5071801;28;19931;-91
2023/11/17 04:14:48;;;;;;;;;;;;;;;2.55;100.00;100643.94;5048546;28;19932;-87
2023/11/17 04:17:18;;;;;;;;;;;;;;;2.60;100.00;100645.13;5067363;28;20292;-85
2023/11/17 04:19:46;;;;;;;;;;;;;;;2.58;100.00;100650.72;5054561;28;20292;-87
2023/11/17 04:22:20;;;;;;;;;;;;;;;2.57;100.00;100657.16;5063392;28;20397;-87
2023/11/17 04:24:48;;;;;;;;;;;;;;;2.49;100.00;100654.78;5069116;28;19925;-86
2023/11/17 04:27:19;;;;;;;;;;;;;;;2.51;100.00;100658.03;5054837;28;19932;-87
2023/11/17 04:29:47;;;;;;;;;;;;;;;2.53;100.00;100670.22;5054570;28;20396;-87
2023/11/17 04:32:19;;;;;;;;;;;;;;;2.53;100.00;100666.72;5052439;28;19924;-87
2023/11/17 04:34:49;;;;;;;;;;;;;;;2.46;100.00;100677.53;5049087;28;19931;-90
2023/11/17 04:37:19;;;;;;;;;;;;;;;2.46;100.00;100674.00;5051633;28;19925;-87
2023/11/17 04:39:49;;;;;;;;;;;;;;;2.52;100.00;100676.63;5060329;28;19932;-89
2023/11/17 04:42:16;;;;;;;;;;;;;;;2.44;100.00;100676.94;5060000;28;19925;-87
2023/11/17 04:44:44;;;;;;;;;;;;;;;2.40;100.00;100672.25;5047052;28;19925;-85
2023/11/17 04:47:14;;;;;;;;;;;;;;;2.39;100.00;100674.13;5054017;28;20293;-92
2023/11/17 04:49:44;;;;;;;;;;;;;;;2.42;100.00;100679.03;5044187;28;20277;-89
2023/11/17 04:52:12;;;;;;;;;;;;;;;2.43;100.00;100686.06;5053343;28;20600;-86
2023/11/17 04:54:45;;;;;;;;;;;;;;;2.44;100.00;100701.09;5054146;28;19924;-88
2023/11/17 04:57:20;;;;;;;;;;;;;;;2.50;100.00;100697.53;5053526;28;19924;-88
2023/11/17 04:59:52;;;;;;;;;;;;;;;2.46;100.00;100684.75;5060946;28;19932;-85
2023/11/17 05:02:20;;;;;;;;;;;;;;;2.42;100.00;100691.63;5066158;28;19932;-87
2023/11/17 05:04:53;;;;;;;;;;;;;;;2.40;100.00;100694.53;5043736;28;19931;-83
2023/11/17 05:07:27;;;;;;;;;;;;;;;2.37;100.00;100690.44;5046829;28;19936;-91
2023/11/17 05:09:55;;;;;;;;;;;;;;;2.38;100.00;100692.09;5058016;28;20312;-88
2023/11/17 05:12:24;;;;;;;;;;;;;;;2.31;100.00;100693.22;5051606;28;19925;-88
2023/11/17 05:14:52;;;;;;;;;;;;;;;2.26;100.00;100696.56;5049108;28;19924;-89
2023/11/17 05:17:22;;;;;;;;;;;;;;;2.28;100.00;100701.69;5072916;28;19929;-88
2023/11/17 05:19:50;;;;;;;;;;;;;;;2.25;100.00;100720.97;5046620;28;19932;-87
2023/11/17 05:22:18;;;;;;;;;;;;;;;2.29;100.00;100719.47;5061596;28;19932;-86
2023/11/17 05:24:46;;;;;;;;;;;;;;;2.30;100.00;100723.78;5068301;28;19930;-86
2023/11/17 05:27:14;;;;;;;;;;;;;;;2.29;100.00;100720.31;5037229;28;19932;-90
2023/11/17 05:29:44;;;;;;;;;;;;;;;2.36;100.00;100722.88;5050084;28;19947;-88
2023/11/17 05:32:12;;;;;;;;;;;;;;;2.35;100.00;100732.00;5060887;28;19924;-86
2023/11/17 05:34:40;;;;;;;;;;;;;;;2.33;100.00;100731.41;5053009;28;20496;-87
2023/11/17 05:37:13;;;;;;;;;;;;;;;2.32;100.00;100727.06;5048457;28;19924;-86
2023/11/17 05:39:46;;;;;;;;;;;;;;;2.28;100.00;100729.41;5057237;28;20300;-86
2023/11/17 05:42:14;;;;;;;;;;;;;;;2.27;100.00;100737.69;5053697;28;19952;-86
2023/11/17 05:44:43;;;;;;;;;;;;;;;2.26;100.00;100726.09;5046206;28;19924;-87
2023/11/17 05:47:11;;;;;;;;;;;;;;;2.30;100.00;100729.97;5051127;28;19932;-87
2023/11/17 05:49:43;;;;;;;;;;;;;;;2.21;100.00;100729.47;5055287;28;19933;-87
2023/11/17 05:52:16;;;;;;;;;;;;;;;2.19;100.00;100733.41;5051855;28;19925;-86
2023/11/17 05:54:49;;;;;;;;;;;;;;;2.19;100.00;100741.47;5071506;28;19931;-86
2023/11/17 05:57:18;;;;;;;;;;;;;;;2.25;100.00;100731.69;5046581;28;20293;-87
2023/11/17 05:59:48;;;;;;;;;;;;;;;2.29;100.00;100747.16;5045242;28;19925;-87
2023/11/17 06:02:16;;;;;;;;;;;;;;;2.32;100.00;100746.72;5054441;28;19928;-89
2023/11/17 06:04:49;;;;;;;;;;;;;;;2.27;100.00;100748.41;5062929;28;19925;-87
2023/11/17 06:07:17;;;;;;;;;;;;;;;2.29;100.00;100746.31;5057923;28;19925;-86
2023/11/17 06:09:45;;;;;;;;;;;;;;;2.27;100.00;100746.53;5059165;28;19925;-87
2023/11/17 06:12:15;;;;;;;;;;;;;;;2.33;100.00;100761.75;5051983;28;19925;-86
2023/11/17 06:14:49;;;;;;;;;;;;;;;2.33;100.00;100755.56;5050619;28;19935;-87
2023/11/17 06:17:17;;;;;;;;;;;;;;;2.32;100.00;100762.81;5044853;28;20456;-86
2023/11/17 06:19:45;;;;;;;;;;;;;;;2.35;100.00;100762.38;5065535;28;19924;-86
2023/11/17 06:22:13;;;;;;;;;;;;;;;2.37;100.00;100767.50;5048516;28;19932;-87
2023/11/17 06:24:41;;;;;;;;;;;;;;;2.37;100.00;100779.06;5060915;28;19931;-87
2023/11/17 06:27:10;;;;;;;;;;;;;;;2.37;100.00;100768.31;5055061;28;19931;-89
2023/11/17 06:29:44;;;;;;;;;;;;;;;2.38;100.00;100778.03;5050204;28;20297;-87
2023/11/17 06:32:13;;;;;;;;;;;;;;;2.34;100.00;100782.19;5060959;28;19925;-86
2023/11/17 06:34:46;;;;;;;;;;;;;;;2.30;100.00;100799.81;5056901;28;20548;-90
2023/11/17 06:37:14;;;;;;;;;;;;;;;2.38;100.00;100783.41;5057427;28;19995;-86
2023/11/17 06:39:47;;;;;;;;;;;;;;;2.33;100.00;100795.84;5053963;28;19925;-86
2023/11/17 06:42:22;;;;;;;;;;;;;;;2.34;100.00;100803.69;5058445;28;19928;-85
2023/11/17 06:44:51;;;;;;;;;;;;;;;2.35;100.00;100801.84;5050851;28;19929;-85
2023/11/17 06:47:21;;;;;;;;;;;;;;;2.34;100.00;100810.94;5059535;28;19928;-87
2023/11/17 06:49:49;;;;;;;;;;;;;;;2.37;100.00;100805.13;5052815;28;19933;-87
2023/11/17 06:52:17;;;;;;;;;;;;;;;2.40;100.00;100809.22;5050166;28;20393;-87
2023/11/17 06:54:45;;;;;;;;;;;;;;;2.38;100.00;100807.56;5056876;28;20684;-87
2023/11/17 06:57:13;;;;;;;;;;;;;;;2.35;100.00;100817.97;5051345;28;19925;-87
2023/11/17 06:59:41;;;;;;;;;;;;;;;2.35;100.00;100818.78;5056968;28;19924;-87
2023/11/17 07:02:09;;;;;;;;;;;;;;;2.33;100.00;100820.03;5074164;28;20311;-88
2023/11/17 07:04:39;;;;;;;;;;;;;;;2.37;100.00;100822.03;5050887;28;19932;-89
2023/11/17 07:07:07;;;;;;;;;;;;;;;2.37;100.00;100827.41;5058045;28;19931;-89
2023/11/17 07:09:42;;;;;;;;;;;;;;;2.39;100.00;100824.53;5065065;28;19929;-87
2023/11/17 07:12:10;;;;;;;;;;;;;;;2.41;100.00;100835.03;5066355;28;20381;-88
2023/11/17 07:14:44;;;;;;;;;;;;;;;2.40;100.00;100842.25;5055903;28;19932;-88
2023/11/17 07:17:15;;;;;;;;;;;;;;;2.48;100.00;100833.91;5066495;28;19924;-87
2023/11/17 07:19:45;;;;;;;;;;;;;;;2.46;100.00;100836.03;5048767;28;19925;-86
2023/11/17 07:22:13;;;;;;;;;;;;;;;2.46;100.00;100841.41;5051726;28;19932;-88
2023/11/17 07:24:41;;;;;;;;;;;;;;;2.43;100.00;100843.69;5055449;28;19924;-87
2023/11/17 07:27:11;;;;;;;;;;;;;;;2.51;100.00;100846.94;5052032;28;19931;-86
2023/11/17 07:29:39;;;;;;;;;;;;;;;2.58;100.00;100860.28;5060745;28;19940;-85
2023/11/17 07:32:13;;;;;;;;;;;;;;;2.55;100.00;100853.50;5061887;28;19925;-86
2023/11/17 07:34:41;;;;;;;;;;;;;;;2.54;100.00;100865.28;5061036;28;19935;-87
2023/11/17 07:37:15;;;;;;;;;;;;;;;2.46;100.00;100870.94;5048344;28;19925;-89
2023/11/17 07:39:43;;;;;;;;;;;;;;;2.46;100.00;100879.00;5047295;28;19925;-87
2023/11/17 07:42:16;;;;;;;;;;;;;;;2.51;100.00;100878.34;5047268;28;19929;-87
2023/11/17 07:44:44;;;;;;;;;;;;;;;2.52;100.00;100879.97;5044817;28;19928;-86
2023/11/17 07:47:12;;;;;;;;;;;;;;;2.46;100.00;100889.75;5067564;28;19932;-88
2023/11/17 07:49:43;;;;;;;;;;;;;;;2.58;100.00;100889.81;5060213;28;19936;-86
2023/11/17 07:52:17;;;;;;;;;;;;;;;2.49;100.00;100891.19;5052193;28;20296;-85
2023/11/17 07:54:46;;;;;;;;;;;;;;;2.50;100.00;100888.25;5062988;28;19925;-86
2023/11/17 07:57:19;;;;;;;;;;;;;;;2.45;100.00;100890.78;5050743;28;19931;-87
2023/11/17 07:59:48;;;;;;;;;;;;;;;2.49;100.00;100893.88;5063225;28;19924;-87
2023/11/17 08:02:21;;;;;;;;;;;;;;;2.50;100.00;100893.63;5052479;28;19929;-86
2023/11/17 08:04:49;;;;;;;;;;;;;;;2.54;100.00;100892.16;5052238;28;19924;-86
2023/11/17 08:07:23;;;;;;;;;;;;;;;2.49;100.00;100902.72;5051661;28;19929;-87
2023/11/17 08:09:51;;;;;;;;;;;;;;;2.58;100.00;100899.75;5049776;28;19935;-86
2023/11/17 08:12:19;;;;;;;;;;;;;;;2.65;100.00;100897.84;5053494;28;20563;-86
2023/11/17 08:14:54;;;;;;;;;;;;;;;2.66;100.00;100902.16;5047043;28;19925;-86
2023/11/17 08:17:23;;;;;;;;;;;;;;;2.69;100.00;100913.31;5062028;28;19932;-87
2023/11/17 08:19:51;;;;;;;;;;;;;;;2.70;100.00;100908.75;5049497;28;20296;-87
2023/11/17 08:22:19;;;;;;;;;;;;;;;2.74;100.00;100920.69;5056086;28;19935;-86
2023/11/17 08:24:48;;;;;;;;;;;;;;;2.64;100.00;100915.84;5061760;28;19935;-87
2023/11/17 08:27:16;;;;;;;;;;;;;;;2.69;100.00;100933.97;5045747;28;19932;-87
2023/11/17 08:29:49;;;;;;;;;;;;;;;2.63;100.00;100937.56;5059652;28;19931;-88
2023/11/17 08:32:17;;;;;;;;;;;;;;;2.69;100.00;100939.34;5046169;28;19928;-88
2023/11/17 08:34:46;;;;;;;;;;;;;;;2.71;100.00;100939.97;5050360;28;19932;-88
2023/11/17 08:37:14;;;;;;;;;;;;;;;2.82;100.00;100944.59;5049833;28;19936;-87
2023/11/17 08:39:42;;;;;;;;;;;;;;;2.75;100.00;100951.91;5046368;28;20377;-88
2023/11/17 08:42:11;;;;;;;;;;;;;;;2.86;100.00;100951.19;5048022;28;19924;-87
2023/11/17 08:44:44;;;;;;;;;;;;;;;2.75;100.00;100954.59;5051417;28;19992;-88
2023/11/17 08:47:17;;;;;;;;;;;;;;;2.76;100.00;100955.41;5045675;28;21279;-88
2023/11/17 08:49:46;;;;;;;;;;;;;;;2.68;100.00;100954.66;5044831;28;19936;-87
2023/11/17 08:52:14;;;;;;;;;;;;;;;2.67;100.00;100954.88;5047322;28;19932;-87
2023/11/17 08:54:47;;;;;;;;;;;;;;;2.69;100.00;100952.78;5053113;28;19931;-88
2023/11/17 08:57:21;;;;;;;;;;;;;;;2.72;100.00;100947.78;5063616;28;19924;-88
2023/11/17 08:59:49;;;;;;;;;;;;;;;2.76;100.00;100966.97;5050084;28;19924;-87
2023/11/17 09:02:19;;;;;;;;;;;;;;;2.70;100.00;100966.00;5048457;28;19924;-88
2023/11/17 09:04:47;;;;;;;;;;;;;;;2.71;100.00;100969.53;5069337;28;19939;-87
2023/11/17 09:07:16;;;;;;;;;;;;;;;2.68;100.00;100978.84;5051519;28;19933;-89
2023/11/17 09:09:44;;;;;;;;;;;;;;;2.76;100.00;100974.22;5049781;28;19924;-87
2023/11/17 09:12:14;;;;;;;;;;;;;;;2.85;100.00;100972.91;5048853;28;19936;-87
2023/11/17 09:14:43;;;;;;;;;;;;;;;2.82;100.00;100978.72;5045808;28;20424;-91
2023/11/17 09:17:12;;;;;;;;;;;;;;;2.83;100.00;100975.81;5050695;28;19928;-88
2023/11/17 09:19:42;;;;;;;;;;;;;;;2.80;100.00;100983.50;5044463;28;21402;-86
2023/11/17 09:22:10;;;;;;;;;;;;;;;2.73;100.00;100999.66;5021790;28;19932;-87
2023/11/17 09:24:40;;;;;;;;;;;;;;;2.77;100.00;101002.75;5038543;28;19932;-87
2023/11/17 09:27:14;;;;;;;;;;;;;;;2.66;100.00;101001.59;5037052;28;19939;-87
2023/11/17 09:29:44;;;;;;;;;;;;;;;2.79;100.00;101004.19;5026667;28;20419;-88
2023/11/17 09:32:18;;;;;;;;;;;;;;;2.77;100.00;100995.50;5047966;28;19933;-86
2023/11/17 09:34:48;;;;;;;;;;;;;;;2.90;100.00;101005.34;5055243;28;19929;-87
2023/11/17 09:37:18;;;;;;;;;;;;;;;2.92;100.00;101005.91;5031975;28;20639;-87
2023/11/17 09:39:50;;;;;;;;;;;;;;;3.03;100.00;101001.69;5028187;28;19932;-88
2023/11/17 09:42:19;;;;;;;;;;;;;;;3.09;100.00;101018.81;5030045;28;19939;-87
2023/11/17 09:44:55;;;;;;;;;;;;;;;3.16;100.00;101008.78;5048235;28;19932;-86
2023/11/17 09:47:27;;;;;;;;;;;;;;;3.25;100.00;101007.47;5032470;28;19933;-87
2023/11/17 09:50:00;;;;;;;;;;;;;;;3.21;100.00;100995.50;5037685;28;19990;-86
2023/11/17 09:52:32;;;;;;;;;;;;;;;3.22;100.00;101002.53;5034022;28;19932;-88
2023/11/17 09:55:07;;;;;;;;;;;;;;;3.13;100.00;101009.25;5031985;28;19932;-87
2023/11/17 09:57:35;;;;;;;;;;;;;;;3.06;100.00;101010.13;5025870;28;19932;-86
2023/11/17 10:00:29;;;;;;;;;;;;;;;2.98;100.00;101010.41;5021413;28;19933;-87
2023/11/17 10:03:01;;;;;;;;;;;;;;;3.03;100.00;101004.38;5026939;28;20409;-88
2023/11/17 10:05:29;;;;;;;;;;;;;;;3.02;100.00;101011.59;5034791;28;19943;-87
2023/11/17 10:08:03;;;;;;;;;;;;;;;3.15;100.00;101010.66;5055126;28;20584;-87
2023/11/17 10:10:34;;;;;;;;;;;;;;;3.25;100.00;101012.84;5031961;28;19967;-87
2023/11/17 10:13:10;;;;;;;;;;;;;;;3.12;100.00;101011.13;5034205;28;19933;-86
2023/11/17 10:15:39;;;;;;;;;;;;;;;3.14;100.00;101011.72;5035553;28;20620;-86
2023/11/17 10:18:18;;;;;;;;;;;;;;;3.22;100.00;101003.34;5038133;28;19932;-87
2023/11/17 10:20:51;;;;;;;;;;;;;;;3.33;100.00;101007.19;5038300;28;19932;-86
2023/11/17 10:23:25;;;;;;;;;;;;;;;3.30;100.00;101014.84;5013726;28;19936;-86
2023/11/17 10:25:54;;;;;;;;;;;;;;;3.31;100.00;101014.63;5054623;28;19932;-87
2023/11/17 10:28:28;;;;;;;;;;;;;;;3.56;100.00;101005.66;5049817;28;19933;-87
2023/11/17 10:31:00;;;;;;;;;;;;;;;3.38;100.00;101006.50;5035298;28;19936;-85
2023/11/17 10:33:30;;;;;;;;;;;;;;;3.48;100.00;101004.13;5052784;28;19939;-87
2023/11/17 10:36:02;;;;;;;;;;;;;;;3.36;100.00;101017.47;5039485;28;19933;-87
2023/11/17 10:38:34;;;;;;;;;;;;;;;3.46;100.00;101008.88;5041134;28;20300;-87
2023/11/17 10:41:11;;;;;;;;;;;;;;;3.58;100.00;101022.44;5046736;28;19944;-87
2023/11/17 10:43:48;;;;;;;;;;;;;;;3.41;100.00;101024.88;5038199;28;19933;-85
2023/11/17 10:46:20;;;;;;;;;;;;;;;3.52;100.00;101024.16;5037922;28;20392;-88
2023/11/17 10:48:58;;;;;;;;;;;;;;;3.65;100.00;101020.47;5038011;28;20466;-86
2023/11/17 10:51:27;;;;;;;;;;;;;;;3.65;100.00;101025.06;5035305;28;20111;-88
2023/11/17 10:54:04;;;;;;;;;;;;;;;3.68;100.00;101027.28;5050928;28;19932;-88
2023/11/17 10:56:32;;;;;;;;;;;;;;;3.68;100.00;101028.09;5036718;28;19943;-87
2023/11/17 10:59:08;;;;;;;;;;;;;;;3.77;100.00;101027.78;5058209;28;19932;-86
2023/11/17 11:01:37;;;;;;;;;;;;;;;3.85;100.00;101028.31;5041572;28;20396;-86
2023/11/17 11:04:15;;;;;;;;;;;;;;;3.93;100.00;101029.88;5033692;28;19924;-86
2023/11/17 11:06:43;;;;;;;;;;;;;;;3.95;100.00;101026.94;5035551;28;20643;-87
2023/11/17 11:09:16;;;;;;;;;;;;;;;3.96;100.00;101034.78;5040747;28;19932;-87
2023/11/17 11:11:47;;;;;;;;;;;;;;;3.86;100.00;101038.03;5039291;28;20324;-87
2023/11/17 11:14:17;;;;;;;;;;;;;;;3.85;100.00;101040.94;5037979;28;19932;-86
2023/11/17 11:16:46;;;;;;;;;;;;;;;3.90;100.00;101041.09;5038121;28;19932;-87
2023/11/17 11:19:17;;;;;;;;;;;;;;;3.86;100.00;101046.09;5035866;28;19933;-87
2023/11/17 11:21:51;;;;;;;;;;;;;;;3.91;100.00;101040.06;5038774;28;20416;-85
2023/11/17 11:24:24;;;;;;;;;;;;;;;3.89;100.00;101045.69;5035763;28;19933;-89
2023/11/17 11:26:52;;;;;;;;;;;;;;;3.99;100.00;101055.91;5034418;28;19932;-86
2023/11/17 11:29:20;;;;;;;;;;;;;;;3.84;100.00;101063.53;5051429;28;19932;-88
2023/11/17 11:31:49;;;;;;;;;;;;;;;3.72;100.00;101055.41;5050748;28;19932;-86
2023/11/17 11:34:18;;;;;;;;;;;;;;;3.72;100.00;101053.50;5035321;28;19932;-86
2023/11/17 11:36:48;;;;;;;;;;;;;;;3.80;100.00;101054.25;5033063;28;19932;-86
2023/11/17 11:39:22;;;;;;;;;;;;;;;3.83;100.00;101064.59;5037070;28;19951;-86
2023/11/17 11:41:54;;;;;;;;;;;;;;;3.78;100.00;101064.44;5041419;28;19932;-87
2023/11/17 11:44:27;;;;;;;;;;;;;;;3.91;100.00;101066.97;5039161;28;19932;-87
2023/11/17 11:47:00;;;;;;;;;;;;;;;3.85;100.00;101070.56;5037175;28;19940;-86
2023/11/17 11:49:30;;;;;;;;;;;;;;;3.83;100.00;101078.06;5035961;28;19931;-87
2023/11/17 11:52:09;;;;;;;;;;;;;;;3.96;100.00;101071.69;5039315;28;20297;-87
2023/11/17 11:54:43;;;;;;;;;;;;;;;4.00;100.00;101080.94;5037589;28;19932;-86
2023/11/17 11:57:26;;;;;;;;;;;;;;;4.06;100.00;101086.25;5053753;28;19932;-87
2023/11/17 12:00:00;;;;;;;;;;;;;;;3.92;100.00;101082.91;5038875;28;20567;-87
2023/11/17 12:02:30;;;;;;;;;;;;;;;3.83;100.00;101081.56;5033947;28;19933;-86
2023/11/17 12:05:08;;;;;;;;;;;;;;;4.01;100.00;101085.31;5056109;28;19932;-86
2023/11/17 12:07:37;;;;;;;;;;;;;;;3.84;100.00;101091.28;5038906;28;19937;-87
2023/11/17 12:10:09;;;;;;;;;;;;;;;4.04;100.00;101093.72;5033901;28;19932;-86
2023/11/17 12:12:39;;;;;;;;;;;;;;;4.00;100.00;101097.91;5030505;28;19935;-87
2023/11/17 12:15:12;;;;;;;;;;;;;;;3.91;100.00;101099.28;5033498;28;20512;-86
2023/11/17 12:17:44;;;;;;;;;;;;;;;4.00;100.00;101102.50;5033633;28;20889;-86
2023/11/17 12:20:25;;;;;;;;;;;;;;;4.02;100.00;101108.47;5030782;28;19932;-86
2023/11/17 12:22:56;;;;;;;;;;;;;;;4.05;100.00;101108.03;5009465;28;19932;-87
2023/11/17 12:25:25;;;;;;;;;;;;;;;4.12;100.00;101118.75;5039495;28;19933;-86
2023/11/17 12:27:53;;;;;;;;;;;;;;;4.03;100.00;101112.81;5035276;28;19937;-86
2023/11/17 12:30:21;;;;;;;;;;;;;;;3.93;100.00;101110.66;5052076;28;19933;-86
2023/11/17 12:32:51;;;;;;;;;;;;;;;3.85;100.00;101117.19;5052562;28;19939;-86
2023/11/17 12:35:20;;;;;;;;;;;;;;;3.74;100.00;101123.28;5041673;28;19924;-88
2023/11/17 12:37:51;;;;;;;;;;;;;;;3.62;100.00;101127.75;5039364;28;19932;-86
2023/11/17 12:40:28;;;;;;;;;;;;;;;3.70;100.00;101130.16;5052456;28;19932;-85
2023/11/17 12:43:01;;;;;;;;;;;;;;;3.65;100.00;101138.09;5038097;28;19933;-88
2023/11/17 12:45:34;;;;;;;;;;;;;;;3.79;100.00;101130.69;5035692;28;19940;-89
2023/11/17 12:48:03;;;;;;;;;;;;;;;3.69;100.00;101136.59;5033194;28;19947;-87
2023/11/17 12:50:39;;;;;;;;;;;;;;;3.77;100.00;101130.94;5031582;28;19932;-87
2023/11/17 12:53:14;;;;;;;;;;;;;;;3.83;100.00;101139.97;5033425;28;19939;-87